Arcadia — ZCDN9 — position and weather

sailwx.info

Track history (hours):
 
Tides and Currents Weather Stations Pressure Air Temp Water Temp Dewpoint Dewpoint Depression Visibility Wind Speed Wind Dir Waves Ship Positions

Arcadia

Last reported at 2018-Jun-24 09:00 UTC. Time now 2018-Jun-24 09:23 UTC.
Position N 37°28' E 025°19'.

Length 285.1 m; beam 32.2 m; draft 8 m.

Type: Passenger vessel. MMSI: 310473000.

Date/timePositionNaut miles runAvg speedWind from/ knotsBaromVisibWave heightAir tempDewpointWater temp
2018-Jun-24 09:00N 37°28' E 025°19'0 0.0
2018-Jun-24 08:30N 37°28' E 025°19'0 0.0
2018-Jun-24 08:00N 37°28' E 025°19'0 0.0
2018-Jun-24 07:30N 37°28' E 025°19'0 0.0
2018-Jun-24 06:54N 37°28' E 025°19'0 0.0
2018-Jun-24 06:27N 37°28' E 025°19'0 0.0
2018-Jun-24 06:00N 37°28' E 025°19'0 0.0
2018-Jun-24 05:30N 37°28' E 025°19'0 0.0
2018-Jun-24 05:00N 37°28' E 025°19'0 0.6
2018-Jun-24 04:30N 37°28' E 025°19'4 8.3
2018-Jun-24 04:01N 37°28' E 025°14'713.8
2018-Jun-24 03:30N 37°25' E 025°06'714.0
2018-Jun-24 03:00N 37°21' E 024°59'714.6
2018-Jun-24 02:30N 37°16' E 024°52'3513.9
2018-Jun-24 00:00N 36°54' E 024°18'4516.5 020 / 211012.010.8 23.519.324.8
2018-Jun-23 21:16N 37°31' E 023°46'415.2
2018-Jun-23 21:01N 37°35' E 023°46'815.1
2018-Jun-23 20:31N 37°42' E 023°42'714.8
2018-Jun-23 20:00N 37°49' E 023°37'5 9.4
2018-Jun-23 19:30N 37°53' E 023°36'3 6.9
2018-Jun-23 19:01N 37°56' E 023°38'0 0.3
2018-Jun-23 18:28N 37°56' E 023°38'0 0.0
2018-Jun-23 17:58N 37°56' E 023°38'0 0.0
2018-Jun-23 17:28N 37°56' E 023°38'0 0.0
2018-Jun-23 16:58N 37°56' E 023°38'0 0.0
2018-Jun-23 16:28N 37°56' E 023°38'0 0.0
2018-Jun-23 15:58N 37°56' E 023°38'0 0.0
2018-Jun-23 15:28N 37°56' E 023°38'0 0.0
2018-Jun-23 14:58N 37°56' E 023°38'0 0.0
2018-Jun-23 14:28N 37°56' E 023°38'0 0.0
2018-Jun-23 13:58N 37°56' E 023°38'0 0.0
2018-Jun-23 13:28N 37°56' E 023°38'0 0.0
2018-Jun-23 12:58N 37°56' E 023°38'0 0.0
2018-Jun-23 12:28N 37°56' E 023°38'0 0.0
2018-Jun-23 11:58N 37°56' E 023°38'0 0.0
2018-Jun-23 11:28N 37°56' E 023°38'0 0.0
2018-Jun-23 10:58N 37°56' E 023°38'0 0.0
2018-Jun-23 10:28N 37°56' E 023°38'0 0.0
2018-Jun-23 09:58N 37°56' E 023°38'0 0.0
2018-Jun-23 09:28N 37°56' E 023°38'0 0.0
2018-Jun-23 08:55N 37°56' E 023°38'0 0.0
2018-Jun-23 08:28N 37°56' E 023°38'0 0.0
2018-Jun-23 07:58N 37°56' E 023°38'0 0.0
2018-Jun-23 07:28N 37°56' E 023°38'0 0.0
2018-Jun-23 06:58N 37°56' E 023°38'0 0.0
2018-Jun-23 06:28N 37°56' E 023°38'0 0.0
2018-Jun-23 05:58N 37°56' E 023°38'0 0.0
2018-Jun-23 05:28N 37°56' E 023°38'0 0.0
2018-Jun-23 04:58N 37°56' E 023°38'0 0.0
2018-Jun-23 04:28N 37°56' E 023°38'0 0.0
2018-Jun-23 03:58N 37°56' E 023°38'0 0.0
2018-Jun-23 03:28N 37°56' E 023°38'0 0.0
2018-Jun-23 02:58N 37°56' E 023°38'0 0.0
2018-Jun-23 02:28N 37°56' E 023°38'0 0.0
2018-Jun-23 01:58N 37°56' E 023°38'1 1.5
2018-Jun-23 01:30N 37°56' E 023°37'5 9.3
2018-Jun-23 01:01N 37°52' E 023°39'816.1
2018-Jun-23 00:30N 37°45' E 023°44'816.5
2018-Jun-23 00:01N 37°37' E 023°48'261509.8
2018-Jun-23 00:00N 37°12' E 023°42'1735.4 360 / 141011.2 5.4 25.119.924.0
2018-Jun-22 23:31N 37°28' E 023°48'918.3
2018-Jun-22 23:00N 37°20' E 023°45'19915.3
2018-Jun-22 10:00N 36°06' E 019°54'9719.4 290 / 91016.910.8 25.618.425.1
2018-Jun-22 05:00N 36°06' E 017°54'7819.4 230 / 121016.610.8 24.419.324.3
2018-Jun-22 01:00N 36°06' E 016°18'4014.7 270 / 21017.210.8 22.818.924.1
2018-Jun-21 22:16N 36°08' E 015°28'1218.0
2018-Jun-21 21:36N 36°07' E 015°14'218.0
2018-Jun-21 21:30N 36°07' E 015°11'1118.0
2018-Jun-21 20:52N 36°07' E 014°57'718.1
2018-Jun-21 20:30N 36°03' E 014°50'918.0
2018-Jun-21 20:00N 35°59' E 014°41'816.6
2018-Jun-21 19:30N 35°54' E 014°32'101 4.7
2018-Jun-20 22:00N 37°06' E 016°00'3415.7 350 / 71019.510.8 23.019.123.5
2018-Jun-20 19:50N 37°34' E 016°24'18819.1
2018-Jun-20 10:00N 40°12' E 018°36'18320.3 1018.210.8 24.820.224.6
2018-Jun-20 01:00N 42°24' E 015°48'140 6.2 350 / 51017.210.8 23.820.024.7
2018-Jun-19 02:34N 44°25' E 014°11'620.2
2018-Jun-19 02:17N 44°26' E 014°03'2015.2
2018-Jun-19 01:00N 44°30' E 013°36'1539.2 040 / 171018.010.8 24.517.323.5
2018-Jun-19 00:37N 44°43' E 013°28'220.4
2018-Jun-19 00:30N 44°45' E 013°26'1020.3
2018-Jun-19 00:00N 44°53' E 013°17'1019.5
2018-Jun-18 23:30N 44°55' E 013°03'1020.4
2018-Jun-18 23:00N 44°57' E 012°49'1021.0
2018-Jun-18 22:30N 45°06' E 012°43'1018.7
2018-Jun-18 21:59N 45°11' E 012°31'918.1
2018-Jun-18 21:30N 45°20' E 012°30'613.0
2018-Jun-18 21:00N 45°25' E 012°26'3 5.5
2018-Jun-18 20:30N 45°25' E 012°22'2 0.5
2018-Jun-18 16:05N 45°26' E 012°19'0 0.0
2018-Jun-18 15:59N 45°26' E 012°19'0 0.0
2018-Jun-18 15:17N 45°26' E 012°19'0 0.0
2018-Jun-18 14:59N 45°26' E 012°19'0 0.0
2018-Jun-18 14:29N 45°26' E 012°19'0 0.0
2018-Jun-18 13:59N 45°26' E 012°19'0 0.0
2018-Jun-18 13:29N 45°26' E 012°19'0 0.0
2018-Jun-18 12:59N 45°26' E 012°19'0 0.0
2018-Jun-18 12:29N 45°26' E 012°19'0 0.0
2018-Jun-18 11:59N 45°26' E 012°19'0 0.0
2018-Jun-18 11:23N 45°26' E 012°19'0 0.0
2018-Jun-18 10:59N 45°26' E 012°19'0 0.0
2018-Jun-18 10:29N 45°26' E 012°19'0 0.0
2018-Jun-18 09:59N 45°26' E 012°19'0 0.0
2018-Jun-18 09:29N 45°26' E 012°19'0 0.0
2018-Jun-18 08:59N 45°26' E 012°19'0 0.0
2018-Jun-18 08:29N 45°26' E 012°19'0 0.0
2018-Jun-18 07:59N 45°26' E 012°19'0 0.0
2018-Jun-18 07:29N 45°26' E 012°19'0 0.0
2018-Jun-18 06:59N 45°26' E 012°19'0 0.0
2018-Jun-18 06:29N 45°26' E 012°19'0 0.2
2018-Jun-18 06:00N 45°26' E 012°19'1 2.3
2018-Jun-18 05:30N 45°26' E 012°20'3 5.1
2018-Jun-18 05:00N 45°26' E 012°24'5 8.9
2018-Jun-18 04:29N 45°24' E 012°29'510.7
2018-Jun-18 04:00N 45°19' E 012°32'612.8
2018-Jun-18 03:30N 45°14' E 012°38'713.8
2018-Jun-18 02:58N 45°10' E 012°46'713.8
2018-Jun-18 02:30N 45°04' E 012°50'815.4
2018-Jun-18 02:00N 44°57' E 012°55'1017.4
2018-Jun-18 01:27N 44°48' E 012°60'3221.5
2018-Jun-18 00:00N 44°18' E 013°12'3919.3 350 / 151013.610.8 24.519.923.9
2018-Jun-17 22:00N 43°54' E 013°54'130362.1 360 / 171013.110.8 24.217.723.0
2018-Jun-17 01:00N 42°42' W 015°54'153656.9 360 / 161010.010.8 23.318.624.0
2018-Jun-15 22:00N 41°00' E 018°24'22613.4 330 / 241006.510.8 24.319.024.5
2018-Jun-15 05:11N 37°34' E 016°24'4114.8
2018-Jun-15 02:25N 37°01' E 015°53'  
Track history (hours):
 
Tides and Currents Weather Stations Pressure Air Temp Water Temp Dewpoint Dewpoint Depression Visibility Wind Speed Wind Dir Waves Ship Positions

Arcadia

Last reported at 2018-Jun-24 09:00 UTC. Time now 2018-Jun-24 09:23 UTC.
Position N 37°28' E 025°19'.

Length 285.1 m; beam 32.2 m; draft 8 m.

Type: Passenger vessel. MMSI: 310473000.

Date/timePositionNaut miles runAvg speedWind from/ knotsBaromVisibWave heightAir tempDewpointWater temp
2018-Jun-24 09:00N 37°28' E 025°19'0 0.0
2018-Jun-24 08:30N 37°28' E 025°19'0 0.0
2018-Jun-24 08:00N 37°28' E 025°19'0 0.0
2018-Jun-24 07:30N 37°28' E 025°19'0 0.0
2018-Jun-24 06:54N 37°28' E 025°19'0 0.0
2018-Jun-24 06:27N 37°28' E 025°19'0 0.0
2018-Jun-24 06:00N 37°28' E 025°19'0 0.0
2018-Jun-24 05:30N 37°28' E 025°19'0 0.0
2018-Jun-24 05:00N 37°28' E 025°19'0 0.6
2018-Jun-24 04:30N 37°28' E 025°19'4 8.3
2018-Jun-24 04:01N 37°28' E 025°14'713.8
2018-Jun-24 03:30N 37°25' E 025°06'714.0
2018-Jun-24 03:00N 37°21' E 024°59'714.6
2018-Jun-24 02:30N 37°16' E 024°52'3513.9
2018-Jun-24 00:00N 36°54' E 024°18'4516.5 020 / 211012.010.8 23.519.324.8
2018-Jun-23 21:16N 37°31' E 023°46'415.2
2018-Jun-23 21:01N 37°35' E 023°46'815.1
2018-Jun-23 20:31N 37°42' E 023°42'714.8
2018-Jun-23 20:00N 37°49' E 023°37'5 9.4
2018-Jun-23 19:30N 37°53' E 023°36'3 6.9
2018-Jun-23 19:01N 37°56' E 023°38'0 0.3
2018-Jun-23 18:28N 37°56' E 023°38'0 0.0
2018-Jun-23 17:58N 37°56' E 023°38'0 0.0
2018-Jun-23 17:28N 37°56' E 023°38'0 0.0
2018-Jun-23 16:58N 37°56' E 023°38'0 0.0
2018-Jun-23 16:28N 37°56' E 023°38'0 0.0
2018-Jun-23 15:58N 37°56' E 023°38'0 0.0
2018-Jun-23 15:28N 37°56' E 023°38'0 0.0
2018-Jun-23 14:58N 37°56' E 023°38'0 0.0
2018-Jun-23 14:28N 37°56' E 023°38'0 0.0
2018-Jun-23 13:58N 37°56' E 023°38'0 0.0
2018-Jun-23 13:28N 37°56' E 023°38'0 0.0
2018-Jun-23 12:58N 37°56' E 023°38'0 0.0
2018-Jun-23 12:28N 37°56' E 023°38'0 0.0
2018-Jun-23 11:58N 37°56' E 023°38'0 0.0
2018-Jun-23 11:28N 37°56' E 023°38'0 0.0
2018-Jun-23 10:58N 37°56' E 023°38'0 0.0
2018-Jun-23 10:28N 37°56' E 023°38'0 0.0
2018-Jun-23 09:58N 37°56' E 023°38'0 0.0
2018-Jun-23 09:28N 37°56' E 023°38'0 0.0
2018-Jun-23 08:55N 37°56' E 023°38'0 0.0
2018-Jun-23 08:28N 37°56' E 023°38'0 0.0
2018-Jun-23 07:58N 37°56' E 023°38'0 0.0
2018-Jun-23 07:28N 37°56' E 023°38'0 0.0
2018-Jun-23 06:58N 37°56' E 023°38'0 0.0
2018-Jun-23 06:28N 37°56' E 023°38'0 0.0
2018-Jun-23 05:58N 37°56' E 023°38'0 0.0
2018-Jun-23 05:28N 37°56' E 023°38'0 0.0
2018-Jun-23 04:58N 37°56' E 023°38'0 0.0
2018-Jun-23 04:28N 37°56' E 023°38'0 0.0
2018-Jun-23 03:58N 37°56' E 023°38'0 0.0
2018-Jun-23 03:28N 37°56' E 023°38'0 0.0
2018-Jun-23 02:58N 37°56' E 023°38'0 0.0
2018-Jun-23 02:28N 37°56' E 023°38'0 0.0
2018-Jun-23 01:58N 37°56' E 023°38'1 1.5
2018-Jun-23 01:30N 37°56' E 023°37'5 9.3
2018-Jun-23 01:01N 37°52' E 023°39'816.1
2018-Jun-23 00:30N 37°45' E 023°44'816.5
2018-Jun-23 00:01N 37°37' E 023°48'261509.8
2018-Jun-23 00:00N 37°12' E 023°42'1735.4 360 / 141011.2 5.4 25.119.924.0
2018-Jun-22 23:31N 37°28' E 023°48'918.3
2018-Jun-22 23:00N 37°20' E 023°45'19915.3
2018-Jun-22 10:00N 36°06' E 019°54'9719.4 290 / 91016.910.8 25.618.425.1
2018-Jun-22 05:00N 36°06' E 017°54'7819.4 230 / 121016.610.8 24.419.324.3
2018-Jun-22 01:00N 36°06' E 016°18'4014.7 270 / 21017.210.8 22.818.924.1
2018-Jun-21 22:16N 36°08' E 015°28'1218.0
2018-Jun-21 21:36N 36°07' E 015°14'218.0
2018-Jun-21 21:30N 36°07' E 015°11'1118.0
2018-Jun-21 20:52N 36°07' E 014°57'718.1
2018-Jun-21 20:30N 36°03' E 014°50'918.0
2018-Jun-21 20:00N 35°59' E 014°41'816.6
2018-Jun-21 19:30N 35°54' E 014°32'101 4.7
2018-Jun-20 22:00N 37°06' E 016°00'3415.7 350 / 71019.510.8 23.019.123.5
2018-Jun-20 19:50N 37°34' E 016°24'18819.1
2018-Jun-20 10:00N 40°12' E 018°36'18320.3 1018.210.8 24.820.224.6
2018-Jun-20 01:00N 42°24' E 015°48'140 6.2 350 / 51017.210.8 23.820.024.7
2018-Jun-19 02:34N 44°25' E 014°11'620.2
2018-Jun-19 02:17N 44°26' E 014°03'2015.2
2018-Jun-19 01:00N 44°30' E 013°36'1539.2 040 / 171018.010.8 24.517.323.5
2018-Jun-19 00:37N 44°43' E 013°28'220.4
2018-Jun-19 00:30N 44°45' E 013°26'1020.3
2018-Jun-19 00:00N 44°53' E 013°17'1019.5
2018-Jun-18 23:30N 44°55' E 013°03'1020.4
2018-Jun-18 23:00N 44°57' E 012°49'1021.0
2018-Jun-18 22:30N 45°06' E 012°43'1018.7
2018-Jun-18 21:59N 45°11' E 012°31'918.1
2018-Jun-18 21:30N 45°20' E 012°30'613.0
2018-Jun-18 21:00N 45°25' E 012°26'3 5.5
2018-Jun-18 20:30N 45°25' E 012°22'2 0.5
2018-Jun-18 16:05N 45°26' E 012°19'0 0.0
2018-Jun-18 15:59N 45°26' E 012°19'0 0.0
2018-Jun-18 15:17N 45°26' E 012°19'0 0.0
2018-Jun-18 14:59N 45°26' E 012°19'0 0.0
2018-Jun-18 14:29N 45°26' E 012°19'0 0.0
2018-Jun-18 13:59N 45°26' E 012°19'0 0.0
2018-Jun-18 13:29N 45°26' E 012°19'0 0.0
2018-Jun-18 12:59N 45°26' E 012°19'0 0.0
2018-Jun-18 12:29N 45°26' E 012°19'0 0.0
2018-Jun-18 11:59N 45°26' E 012°19'0 0.0
2018-Jun-18 11:23N 45°26' E 012°19'0 0.0
2018-Jun-18 10:59N 45°26' E 012°19'0 0.0
2018-Jun-18 10:29N 45°26' E 012°19'0 0.0
2018-Jun-18 09:59N 45°26' E 012°19'0 0.0
2018-Jun-18 09:29N 45°26' E 012°19'0 0.0
2018-Jun-18 08:59N 45°26' E 012°19'0 0.0
2018-Jun-18 08:29N 45°26' E 012°19'0 0.0
2018-Jun-18 07:59N 45°26' E 012°19'0 0.0
2018-Jun-18 07:29N 45°26' E 012°19'0 0.0
2018-Jun-18 06:59N 45°26' E 012°19'0 0.0
2018-Jun-18 06:29N 45°26' E 012°19'0 0.2
2018-Jun-18 06:00N 45°26' E 012°19'1 2.3
2018-Jun-18 05:30N 45°26' E 012°20'3 5.1
2018-Jun-18 05:00N 45°26' E 012°24'5 8.9
2018-Jun-18 04:29N 45°24' E 012°29'510.7
2018-Jun-18 04:00N 45°19' E 012°32'612.8
2018-Jun-18 03:30N 45°14' E 012°38'713.8
2018-Jun-18 02:58N 45°10' E 012°46'713.8
2018-Jun-18 02:30N 45°04' E 012°50'815.4
2018-Jun-18 02:00N 44°57' E 012°55'1017.4
2018-Jun-18 01:27N 44°48' E 012°60'3221.5
2018-Jun-18 00:00N 44°18' E 013°12'3919.3 350 / 151013.610.8 24.519.923.9
2018-Jun-17 22:00N 43°54' E 013°54'130362.1 360 / 171013.110.8 24.217.723.0
2018-Jun-17 01:00N 42°42' W 015°54'153656.9 360 / 161010.010.8 23.318.624.0
2018-Jun-15 22:00N 41°00' E 018°24'22613.4 330 / 241006.510.8 24.319.024.5
2018-Jun-15 05:11N 37°34' E 016°24'4114.8
2018-Jun-15 02:25N 37°01' E 015°53'  

Dump ship's entire track history